Time;durP1;ratioP1;P1;durP2;ratioP2;P2;SDS_P1;SDS_P2;PMS_P1;PMS_P2;Temp;Humidity;BMP_temperature;BMP_pressure;BME280_temperature;BME280_humidity;BME280_pressure;Samples;Min_cycle;Max_cycle;Signal;HPM_P1;HPM_P2
2023/12/14 00:01:52;;;;;;;12.63;10.68;;;;;;;;;;5082603;28;20495;-73
2023/12/14 00:04:22;;;;;;;13.98;9.00;;;;;;;;;;5082699;28;20921;-74
2023/12/14 00:06:53;;;;;;;50.47;11.63;;;;;;;;;;5083232;28;20478;-74
2023/12/14 00:09:23;;;;;;;12.55;11.18;;;;;;;;;;5082929;28;20060;-73
2023/12/14 00:11:53;;;;;;;19.15;13.60;;;;;;;;;;5081440;28;20052;-75
2023/12/14 00:14:23;;;;;;;14.90;11.13;;;;;;;;;;5080833;28;20691;-75
2023/12/14 00:16:53;;;;;;;16.25;14.70;;;;;;;;;;5082044;28;20044;-74
2023/12/14 00:19:24;;;;;;;14.88;13.85;;;;;;;;;;5082111;28;20401;-75
2023/12/14 00:21:55;;;;;;;12.88;11.32;;;;;;;;;;5082142;28;20044;-75
2023/12/14 00:24:28;;;;;;;12.60;10.95;;;;;;;;;;5082416;28;20044;-74
2023/12/14 00:26:58;;;;;;;14.45;11.10;;;;;;;;;;5082468;28;20059;-74
2023/12/14 00:29:28;;;;;;;20.20;13.45;;;;;;;;;;5081522;28;20430;-74
2023/12/14 00:31:58;;;;;;;13.63;12.27;;;;;;;;;;5082092;28;20063;-74
2023/12/14 00:34:28;;;;;;;13.75;12.68;;;;;;;;;;5081635;28;20051;-75
2023/12/14 00:36:59;;;;;;;14.02;12.88;;;;;;;;;;5079389;28;20052;-74
2023/12/14 00:39:29;;;;;;;15.95;14.43;;;;;;;;;;5082595;28;20051;-74
2023/12/14 00:41:59;;;;;;;13.18;12.18;;;;;;;;;;5082240;28;20048;-74
2023/12/14 00:44:28;;;;;;;16.02;14.23;;;;;;;;;;5080391;28;20507;-74
2023/12/14 00:47:00;;;;;;;12.40;11.18;;;;;;;;;;5083087;28;20048;-74
2023/12/14 00:49:31;;;;;;;14.43;13.32;;;;;;;;;;5081864;28;20052;-74
2023/12/14 00:52:04;;;;;;;11.98;10.82;;;;;;;;;;5081492;28;20048;-74
2023/12/14 00:54:34;;;;;;;12.32;11.43;;;;;;;;;;5080809;28;20071;-73
2023/12/14 00:57:04;;;;;;;13.15;11.93;;;;;;;;;;5081309;28;20059;-74
2023/12/14 00:59:34;;;;;;;14.40;13.18;;;;;;;;;;5081905;28;20577;-75
2023/12/14 01:02:05;;;;;;;12.57;11.23;;;;;;;;;;5080625;28;20048;-75
2023/12/14 01:04:36;;;;;;;13.90;12.73;;;;;;;;;;5081283;28;20051;-76
2023/12/14 01:07:05;;;;;;;12.38;11.13;;;;;;;;;;5081716;28;20415;-75
2023/12/14 01:09:36;;;;;;;10.73;9.90;;;;;;;;;;5081862;28;20048;-75
2023/12/14 01:12:06;;;;;;;12.88;11.23;;;;;;;;;;5081481;28;20052;-74
2023/12/14 01:14:37;;;;;;;13.85;12.55;;;;;;;;;;5082046;28;20055;-76
2023/12/14 01:17:08;;;;;;;12.45;11.32;;;;;;;;;;5082150;28;20055;-73
2023/12/14 01:19:41;;;;;;;11.95;10.82;;;;;;;;;;5080888;28;20040;-74
2023/12/14 01:22:11;;;;;;;12.30;11.40;;;;;;;;;;5080020;28;20048;-74
2023/12/14 01:24:43;;;;;;;12.27;9.00;;;;;;;;;;5081980;28;20418;-75
2023/12/14 01:27:14;;;;;;;13.63;12.25;;;;;;;;;;5081709;28;20541;-74
2023/12/14 01:29:44;;;;;;;10.93;9.15;;;;;;;;;;5080018;28;20052;-74
2023/12/14 01:32:15;;;;;;;13.05;11.82;;;;;;;;;;5081132;28;20122;-74
2023/12/14 01:34:46;;;;;;;12.20;11.07;;;;;;;;;;5081344;28;20048;-75
2023/12/14 01:37:17;;;;;;;11.75;10.93;;;;;;;;;;5081907;28;20047;-75
2023/12/14 01:39:46;;;;;;;11.75;9.98;;;;;;;;;;5080925;28;20044;-74
2023/12/14 01:42:17;;;;;;;14.05;10.77;;;;;;;;;;5079954;28;20055;-78
2023/12/14 01:44:47;;;;;;;10.68;9.90;;;;;;;;;;5080901;28;20044;-75
2023/12/14 01:47:18;;;;;;;13.57;12.23;;;;;;;;;;5081609;28;20044;-74
2023/12/14 01:49:49;;;;;;;12.95;11.80;;;;;;;;;;5081019;28;20502;-75
2023/12/14 01:52:21;;;;;;;12.32;10.35;;;;;;;;;;5080639;28;20055;-74
2023/12/14 01:54:50;;;;;;;14.50;13.13;;;;;;;;;;5081898;28;20437;-74
2023/12/14 01:57:21;;;;;;;12.07;10.80;;;;;;;;;;5085827;28;20043;-72
2023/12/14 01:59:52;;;;;;;13.38;12.20;;;;;;;;;;5082312;28;20422;-76
2023/12/14 02:02:22;;;;;;;11.85;10.95;;;;;;;;;;5081092;28;20044;-75
2023/12/14 02:04:52;;;;;;;12.23;11.27;;;;;;;;;;5082024;28;20082;-76
2023/12/14 02:07:23;;;;;;;12.98;11.73;;;;;;;;;;5081887;28;20167;-75
2023/12/14 02:09:53;;;;;;;12.52;11.57;;;;;;;;;;5080983;28;20047;-75
2023/12/14 02:12:23;;;;;;;14.38;13.27;;;;;;;;;;5080863;28;20617;-75
2023/12/14 02:14:53;;;;;;;14.55;13.35;;;;;;;;;;5080878;28;20055;-75
2023/12/14 02:17:23;;;;;;;12.57;11.30;;;;;;;;;;5080683;28;20114;-75
2023/12/14 02:19:53;;;;;;;13.00;11.65;;;;;;;;;;5080609;28;20044;-75
2023/12/14 02:22:24;;;;;;;12.02;11.07;;;;;;;;;;5080999;28;20051;-74
2023/12/14 02:24:54;;;;;;;12.18;11.00;;;;;;;;;;5080994;28;20044;-74
2023/12/14 02:27:24;;;;;;;14.20;13.05;;;;;;;;;;5080963;28;20044;-74
2023/12/14 02:29:55;;;;;;;14.13;12.75;;;;;;;;;;5081907;28;20056;-74
2023/12/14 02:32:26;;;;;;;11.55;10.68;;;;;;;;;;5084564;28;20402;-75
2023/12/14 02:34:56;;;;;;;12.38;11.27;;;;;;;;;;5083896;28;20047;-73
2023/12/14 02:37:26;;;;;;;10.77;10.07;;;;;;;;;;5084912;28;20044;-75
2023/12/14 02:39:57;;;;;;;13.45;12.25;;;;;;;;;;5085173;28;20051;-74
2023/12/14 02:42:27;;;;;;;12.75;11.50;;;;;;;;;;5084585;28;20059;-74
2023/12/14 02:44:57;;;;;;;13.35;12.32;;;;;;;;;;5083867;28;20047;-74
2023/12/14 02:47:29;;;;;;;12.98;11.98;;;;;;;;;;5083936;28;20422;-74
2023/12/14 02:50:00;;;;;;;12.20;11.13;;;;;;;;;;5084359;28;20063;-74
2023/12/14 02:52:31;;;;;;;15.45;14.13;;;;;;;;;;5083930;28;20048;-75
2023/12/14 02:55:01;;;;;;;14.80;13.57;;;;;;;;;;5083556;28;20052;-74
2023/12/14 02:57:32;;;;;;;15.32;13.98;;;;;;;;;;5084138;28;20048;-75
2023/12/14 03:00:03;;;;;;;12.93;11.95;;;;;;;;;;5083790;28;20032;-73
2023/12/14 03:02:34;;;;;;;13.52;12.15;;;;;;;;;;5081762;28;20519;-73
2023/12/14 03:05:06;;;;;;;16.02;14.75;;;;;;;;;;5084306;28;20075;-75
2023/12/14 03:07:39;;;;;;;16.25;15.05;;;;;;;;;;5084293;28;20048;-74
2023/12/14 03:10:10;;;;;;;16.80;15.27;;;;;;;;;;5083931;28;20059;-74
2023/12/14 03:12:40;;;;;;;14.70;13.60;;;;;;;;;;5084133;28;20040;-75
2023/12/14 03:15:10;;;;;;;15.93;14.68;;;;;;;;;;5083802;28;20052;-74
2023/12/14 03:17:41;;;;;;;16.73;15.18;;;;;;;;;;5083233;28;20590;-74
2023/12/14 03:20:14;;;;;;;15.30;14.10;;;;;;;;;;5083691;28;20052;-74
2023/12/14 03:22:44;;;;;;;15.82;14.23;;;;;;;;;;5083951;28;20613;-74
2023/12/14 03:25:15;;;;;;;14.63;13.52;;;;;;;;;;5083708;28;20047;-75
2023/12/14 03:27:47;;;;;;;14.05;12.88;;;;;;;;;;5082294;28;20527;-75
2023/12/14 03:30:18;;;;;;;18.00;16.45;;;;;;;;;;5083212;28;20513;-75
2023/12/14 03:32:48;;;;;;;14.63;13.30;;;;;;;;;;5082960;28;20055;-74
2023/12/14 03:35:18;;;;;;;12.90;11.57;;;;;;;;;;5083158;28;20048;-75
2023/12/14 03:37:49;;;;;;;21.02;16.15;;;;;;;;;;5081669;28;20051;-75
2023/12/14 03:40:19;;;;;;;15.32;13.05;;;;;;;;;;5082824;28;20044;-74
2023/12/14 03:42:50;;;;;;;13.40;12.15;;;;;;;;;;5083131;28;20051;-73
2023/12/14 03:45:20;;;;;;;13.40;11.95;;;;;;;;;;5083059;28;20498;-74
2023/12/14 03:47:50;;;;;;;13.55;12.13;;;;;;;;;;5082640;28;20048;-74
2023/12/14 03:50:21;;;;;;;14.30;12.93;;;;;;;;;;5082766;28;20044;-75
2023/12/14 03:52:52;;;;;;;15.52;14.23;;;;;;;;;;5082990;28;20507;-73
2023/12/14 03:55:22;;;;;;;13.93;12.75;;;;;;;;;;5082600;28;20051;-74
2023/12/14 03:57:52;;;;;;;13.80;12.50;;;;;;;;;;5083322;28;20059;-74
2023/12/14 04:00:22;;;;;;;14.93;13.18;;;;;;;;;;5083262;28;20040;-74
2023/12/14 04:02:53;;;;;;;17.05;13.85;;;;;;;;;;5083199;28;20058;-75
2023/12/14 04:05:24;;;;;;;15.23;13.85;;;;;;;;;;5082340;28;20044;-74
2023/12/14 04:07:55;;;;;;;17.02;15.40;;;;;;;;;;5082021;28;20047;-75
2023/12/14 04:10:24;;;;;;;15.73;14.60;;;;;;;;;;5082034;28;20047;-74
2023/12/14 04:12:55;;;;;;;18.25;16.52;;;;;;;;;;5081943;28;20058;-76
2023/12/14 04:15:25;;;;;;;16.63;15.50;;;;;;;;;;5082182;28;20054;-75
2023/12/14 04:17:56;;;;;;;17.83;16.45;;;;;;;;;;5081550;28;20593;-74
2023/12/14 04:20:26;;;;;;;17.60;16.08;;;;;;;;;;5079782;28;20060;-74
2023/12/14 04:22:57;;;;;;;13.10;12.20;;;;;;;;;;5081923;28;20048;-74
2023/12/14 04:25:28;;;;;;;18.40;16.75;;;;;;;;;;5082071;28;20067;-74
2023/12/14 04:27:59;;;;;;;15.80;14.43;;;;;;;;;;5080212;28;20052;-74
2023/12/14 04:30:28;;;;;;;18.20;16.58;;;;;;;;;;5082313;28;20063;-75
2023/12/14 04:32:59;;;;;;;16.98;15.63;;;;;;;;;;5082499;28;20052;-74
2023/12/14 04:35:36;;;;;;;17.58;16.15;;;;;;;;;;5082316;28;20048;-73
2023/12/14 04:38:07;;;;;;;18.80;17.45;;;;;;;;;;5082477;28;20044;-74
2023/12/14 04:40:38;;;;;;;19.38;17.42;;;;;;;;;;5081845;28;20059;-75
2023/12/14 04:43:11;;;;;;;9.85;8.90;;;;;;;;;;5080012;28;20044;-74
2023/12/14 04:45:42;;;;;;;19.33;17.90;;;;;;;;;;5081096;28;20048;-73
2023/12/14 04:48:12;;;;;;;18.92;17.63;;;;;;;;;;5081871;28;20106;-73
2023/12/14 04:50:42;;;;;;;17.88;16.67;;;;;;;;;;5081772;28;20055;-75
2023/12/14 04:53:12;;;;;;;19.45;17.85;;;;;;;;;;5080498;28;20059;-75
2023/12/14 04:55:42;;;;;;;19.85;18.35;;;;;;;;;;5081518;28;20048;-75
2023/12/14 04:58:14;;;;;;;20.50;18.95;;;;;;;;;;5081906;28;20054;-75
2023/12/14 05:00:45;;;;;;;22.10;20.50;;;;;;;;;;5081746;28;20052;-74
2023/12/14 05:03:16;;;;;;;15.48;14.43;;;;;;;;;;5081837;28;20063;-76
2023/12/14 05:05:47;;;;;;;20.92;19.38;;;;;;;;;;5082242;28;20040;-73
2023/12/14 05:08:18;;;;;;;19.40;18.08;;;;;;;;;;5081947;28;20054;-75
2023/12/14 05:10:48;;;;;;;14.70;12.48;;;;;;;;;;5081636;28;20044;-73
2023/12/14 05:13:19;;;;;;;14.15;12.95;;;;;;;;;;5080240;28;20056;-75
2023/12/14 05:15:49;;;;;;;18.70;16.98;;;;;;;;;;5080160;28;20052;-74
2023/12/14 05:18:19;;;;;;;21.40;16.85;;;;;;;;;;5081438;28;20601;-75
2023/12/14 05:20:49;;;;;;;19.42;17.85;;;;;;;;;;5081053;28;20059;-75
2023/12/14 05:23:21;;;;;;;19.20;16.90;;;;;;;;;;5081087;28;20047;-74
2023/12/14 05:25:51;;;;;;;16.48;15.07;;;;;;;;;;5081141;28;20055;-74
2023/12/14 05:28:21;;;;;;;16.38;14.93;;;;;;;;;;5081176;28;20044;-74
2023/12/14 05:30:52;;;;;;;17.42;16.02;;;;;;;;;;5081587;28;20048;-74
2023/12/14 05:33:23;;;;;;;20.33;18.30;;;;;;;;;;5081776;28;20051;-73
2023/12/14 05:35:52;;;;;;;17.48;15.80;;;;;;;;;;5079738;28;20051;-74
2023/12/14 05:38:23;;;;;;;15.38;13.80;;;;;;;;;;5081555;28;20406;-74
2023/12/14 05:40:54;;;;;;;18.00;16.33;;;;;;;;;;5081200;28;20044;-74
2023/12/14 05:43:25;;;;;;;16.38;15.07;;;;;;;;;;5080888;28;20055;-75
2023/12/14 05:45:54;;;;;;;16.92;15.38;;;;;;;;;;5081278;28;20066;-75
2023/12/14 05:48:26;;;;;;;16.63;15.38;;;;;;;;;;5080955;28;20059;-75
2023/12/14 05:50:57;;;;;;;16.85;15.60;;;;;;;;;;5080976;28;20055;-73
2023/12/14 05:53:29;;;;;;;16.23;14.93;;;;;;;;;;5081376;28;20044;-74
2023/12/14 05:55:59;;;;;;;16.60;15.18;;;;;;;;;;5080987;28;20040;-74
2023/12/14 05:58:28;;;;;;;17.23;15.68;;;;;;;;;;5081482;28;20055;-74
2023/12/14 06:00:59;;;;;;;19.30;17.50;;;;;;;;;;5079759;28;20055;-74
2023/12/14 06:03:31;;;;;;;21.33;19.65;;;;;;;;;;5079779;28;20063;-74
2023/12/14 06:06:02;;;;;;;19.38;18.05;;;;;;;;;;5085236;28;20055;-74
2023/12/14 06:08:32;;;;;;;19.83;18.40;;;;;;;;;;5084856;28;20048;-75
2023/12/14 06:11:02;;;;;;;20.40;18.55;;;;;;;;;;5084851;28;20043;-75
2023/12/14 06:13:33;;;;;;;19.15;17.92;;;;;;;;;;5084513;28;20055;-75
2023/12/14 06:16:04;;;;;;;20.08;18.35;;;;;;;;;;5085048;28;20044;-75
2023/12/14 06:18:35;;;;;;;20.60;18.80;;;;;;;;;;5083177;28;20043;-73
2023/12/14 06:21:05;;;;;;;18.90;17.38;;;;;;;;;;5084839;28;20058;-75
2023/12/14 06:23:36;;;;;;;21.23;19.35;;;;;;;;;;5085405;28;20059;-74
2023/12/14 06:26:07;;;;;;;21.48;19.77;;;;;;;;;;5084176;28;20118;-75
2023/12/14 06:28:38;;;;;;;22.42;20.20;;;;;;;;;;5084634;28;20048;-75
2023/12/14 06:31:21;;;;;;;19.52;18.10;;;;;;;;;;5085152;28;20055;-73
2023/12/14 06:33:52;;;;;;;20.67;18.48;;;;;;;;;;5084568;28;20611;-74
2023/12/14 06:36:29;;;;;;;19.05;16.23;;;;;;;;;;5084314;28;20411;-74
2023/12/14 06:39:00;;;;;;;23.50;21.52;;;;;;;;;;5084364;28;20063;-74
2023/12/14 06:41:31;;;;;;;18.75;17.35;;;;;;;;;;5084342;28;20511;-75
2023/12/14 06:44:01;;;;;;;20.40;18.50;;;;;;;;;;5084393;28;20059;-73
2023/12/14 06:46:32;;;;;;;22.05;20.45;;;;;;;;;;5083983;28;20052;-73
2023/12/14 06:49:04;;;;;;;19.98;18.25;;;;;;;;;;5084437;28;20059;-75
2023/12/14 06:51:35;;;;;;;20.25;18.55;;;;;;;;;;5084518;28;20044;-73
2023/12/14 06:54:05;;;;;;;20.73;19.25;;;;;;;;;;5084212;28;20758;-74
2023/12/14 06:56:37;;;;;;;26.33;24.08;;;;;;;;;;5084242;28;20862;-73
2023/12/14 06:59:08;;;;;;;31.33;28.95;;;;;;;;;;5084593;28;20141;-73
2023/12/14 07:01:38;;;;;;;33.95;31.60;;;;;;;;;;5083951;28;20055;-75
2023/12/14 07:04:10;;;;;;;40.70;38.10;;;;;;;;;;5083535;28;20529;-75
2023/12/14 07:06:49;;;;;;;34.05;31.95;;;;;;;;;;5083472;28;20071;-74
2023/12/14 07:09:20;;;;;;;33.78;31.48;;;;;;;;;;5083789;28;20040;-74
2023/12/14 07:11:50;;;;;;;167.35;31.08;;;;;;;;;;5084188;28;20054;-75
2023/12/14 07:14:20;;;;;;;28.80;26.60;;;;;;;;;;5083882;28;20036;-74
2023/12/14 07:16:54;;;;;;;28.23;25.85;;;;;;;;;;5081222;28;20070;-73
2023/12/14 07:19:24;;;;;;;27.60;25.67;;;;;;;;;;5083660;28;20056;-73
2023/12/14 07:21:55;;;;;;;33.38;30.00;;;;;;;;;;5083873;28;20051;-76
2023/12/14 07:24:26;;;;;;;29.23;27.40;;;;;;;;;;5082174;28;20048;-74
2023/12/14 07:27:02;;;;;;;25.98;24.17;;;;;;;;;;5083455;28;20044;-73
2023/12/14 07:29:33;;;;;;;26.98;24.98;;;;;;;;;;5083976;28;20048;-74
2023/12/14 07:32:04;;;;;;;28.13;26.13;;;;;;;;;;5082797;28;20074;-74
2023/12/14 07:34:35;;;;;;;28.23;26.15;;;;;;;;;;5082615;28;20048;-74
2023/12/14 07:37:05;;;;;;;27.77;25.50;;;;;;;;;;5081412;28;20048;-74
2023/12/14 07:39:37;;;;;;;26.23;24.30;;;;;;;;;;5082760;28;20048;-73
2023/12/14 07:42:08;;;;;;;32.58;29.88;;;;;;;;;;5083375;28;20059;-75
2023/12/14 07:44:40;;;;;;;33.28;30.90;;;;;;;;;;5082905;28;20052;-73
2023/12/14 07:47:10;;;;;;;28.98;27.02;;;;;;;;;;5083646;28;20406;-73
2023/12/14 07:49:43;;;;;;;46.40;43.42;;;;;;;;;;5082622;28;20062;-73
2023/12/14 07:52:13;;;;;;;40.42;37.72;;;;;;;;;;5083034;28;20035;-73
2023/12/14 07:54:43;;;;;;;51.47;47.55;;;;;;;;;;5082869;28;20507;-74
2023/12/14 07:57:14;;;;;;;44.15;40.85;;;;;;;;;;5082896;28;20102;-73
2023/12/14 07:59:45;;;;;;;42.28;38.85;;;;;;;;;;5082653;28;20052;-74
2023/12/14 08:02:15;;;;;;;39.60;36.85;;;;;;;;;;5082873;28;20403;-75
2023/12/14 08:04:45;;;;;;;41.15;38.42;;;;;;;;;;5083095;28;20510;-75
2023/12/14 08:07:15;;;;;;;62.78;58.70;;;;;;;;;;5081410;28;20051;-76
2023/12/14 08:09:46;;;;;;;58.45;54.65;;;;;;;;;;5083190;28;20051;-75
2023/12/14 08:12:16;;;;;;;56.40;52.85;;;;;;;;;;5082536;28;20044;-75
2023/12/14 08:14:46;;;;;;;61.80;57.65;;;;;;;;;;5081884;28;20051;-75
2023/12/14 08:17:17;;;;;;;67.22;62.60;;;;;;;;;;5082610;28;20521;-73
2023/12/14 08:19:47;;;;;;;47.80;44.85;;;;;;;;;;5082602;28;20056;-74
2023/12/14 08:22:17;;;;;;;61.00;57.17;;;;;;;;;;5082394;28;20048;-73
2023/12/14 08:24:49;;;;;;;68.13;63.72;;;;;;;;;;5082602;28;20149;-75
2023/12/14 08:27:19;;;;;;;75.38;70.38;;;;;;;;;;5081594;28;20051;-75
2023/12/14 08:29:49;;;;;;;52.10;48.35;;;;;;;;;;5081317;28;20066;-73
2023/12/14 08:32:19;;;;;;;65.38;61.42;;;;;;;;;;5082596;28;20055;-75
2023/12/14 08:34:52;;;;;;;67.22;62.95;;;;;;;;;;5082491;28;20057;-73
2023/12/14 08:37:23;;;;;;;78.55;73.65;;;;;;;;;;5081767;28;20503;-73
2023/12/14 08:39:53;;;;;;;72.00;67.43;;;;;;;;;;5081830;28;20052;-74
2023/12/14 08:42:24;;;;;;;66.18;61.72;;;;;;;;;;5082968;28;20386;-75
2023/12/14 08:44:54;;;;;;;49.40;45.97;;;;;;;;;;5082465;28;20483;-73
2023/12/14 08:47:25;;;;;;;85.57;80.03;;;;;;;;;;5082299;28;20048;-73
2023/12/14 08:49:55;;;;;;;84.47;78.45;;;;;;;;;;5080230;28;20048;-75
2023/12/14 08:52:25;;;;;;;40.90;38.08;;;;;;;;;;5082791;28;20044;-76
2023/12/14 08:54:55;;;;;;;61.65;57.03;;;;;;;;;;5082000;28;20040;-74
2023/12/14 08:57:26;;;;;;;110.30;102.63;;;;;;;;;;5082091;28;20051;-74
2023/12/14 08:59:56;;;;;;;101.05;94.68;;;;;;;;;;5081670;28;20048;-74
2023/12/14 09:02:27;;;;;;;84.78;79.20;;;;;;;;;;5080939;28;20783;-74
2023/12/14 09:04:58;;;;;;;91.55;85.75;;;;;;;;;;5081381;28;20514;-74
2023/12/14 09:07:31;;;;;;;100.47;94.00;;;;;;;;;;5081112;28;20066;-75
2023/12/14 09:10:02;;;;;;;76.00;70.82;;;;;;;;;;5081620;28;20064;-75
2023/12/14 09:12:34;;;;;;;75.63;70.35;;;;;;;;;;5081160;28;20601;-73
2023/12/14 09:15:05;;;;;;;64.10;60.22;;;;;;;;;;5079645;28;20056;-74
2023/12/14 09:17:35;;;;;;;47.17;43.92;;;;;;;;;;5079528;28;20514;-74
2023/12/14 09:20:07;;;;;;;60.85;56.80;;;;;;;;;;5081859;28;20048;-73
2023/12/14 09:22:38;;;;;;;47.50;44.08;;;;;;;;;;5081888;28;20040;-74
2023/12/14 09:25:09;;;;;;;39.25;36.67;;;;;;;;;;5081710;28;20522;-74
2023/12/14 09:27:40;;;;;;;33.40;31.00;;;;;;;;;;5081753;28;20503;-79
2023/12/14 09:30:11;;;;;;;70.20;64.75;;;;;;;;;;5081071;28;20415;-74
2023/12/14 09:32:43;;;;;;;74.63;69.75;;;;;;;;;;5081374;28;20059;-73
2023/12/14 09:35:14;;;;;;;68.28;63.30;;;;;;;;;;5080515;28;20536;-73
2023/12/14 09:37:45;;;;;;;75.10;70.15;;;;;;;;;;5081761;28;20075;-76
2023/12/14 09:40:18;;;;;;;64.85;59.15;;;;;;;;;;5084797;28;20055;-74
2023/12/14 09:42:49;;;;;;;66.00;61.42;;;;;;;;;;5085297;28;20059;-75
2023/12/14 09:45:24;;;;;;;46.60;42.08;;;;;;;;;;5085519;28;20048;-75
2023/12/14 09:47:54;;;;;;;53.15;49.00;;;;;;;;;;5085215;28;20044;-74
2023/12/14 09:50:26;;;;;;;52.58;48.28;;;;;;;;;;5086209;28;20512;-73
2023/12/14 09:52:57;;;;;;;44.55;41.58;;;;;;;;;;5085354;28;20036;-80
2023/12/14 09:55:27;;;;;;;49.85;45.95;;;;;;;;;;5085364;28;20405;-74
2023/12/14 09:57:57;;;;;;;65.97;61.42;;;;;;;;;;5085372;28;20051;-74
2023/12/14 10:00:38;;;;;;;50.95;47.33;;;;;;;;;;5084643;28;20047;-75
2023/12/14 10:03:27;;;;;;;47.85;43.78;;;;;;;;;;5085117;28;20063;-75
2023/12/14 10:06:00;;;;;;;46.95;43.10;;;;;;;;;;5085195;28;20044;-75
2023/12/14 10:08:30;;;;;;;41.03;37.72;;;;;;;;;;5085331;28;20393;-75
2023/12/14 10:11:00;;;;;;;50.42;46.47;;;;;;;;;;5084820;28;20047;-75
2023/12/14 10:13:39;;;;;;;50.13;46.22;;;;;;;;;;5085031;28;20052;-76
2023/12/14 10:16:10;;;;;;;32.42;29.52;;;;;;;;;;5084589;28;20047;-80
2023/12/14 10:18:40;;;;;;;52.28;48.20;;;;;;;;;;5084568;28;20048;-73
2023/12/14 10:21:10;;;;;;;38.40;35.75;;;;;;;;;;5084684;28;20058;-81
2023/12/14 10:23:41;;;;;;;47.05;43.08;;;;;;;;;;5085411;28;20059;-74
2023/12/14 10:26:11;;;;;;;59.03;54.90;;;;;;;;;;5084254;28;20043;-75
2023/12/14 10:28:42;;;;;;;59.50;55.30;;;;;;;;;;5085254;28;20040;-75
2023/12/14 10:31:12;;;;;;;58.78;54.53;;;;;;;;;;5082722;28;20073;-74
2023/12/14 10:33:43;;;;;;;54.95;51.08;;;;;;;;;;5084303;28;20040;-75
2023/12/14 10:36:18;;;;;;;52.97;49.00;;;;;;;;;;5085374;28;20052;-74
2023/12/14 10:38:53;;;;;;;54.28;50.15;;;;;;;;;;5084731;28;20040;-74
2023/12/14 10:41:24;;;;;;;63.72;59.45;;;;;;;;;;5084456;28;20044;-76
2023/12/14 10:43:56;;;;;;;54.72;50.83;;;;;;;;;;5084144;28;20146;-76
2023/12/14 10:46:51;;;;;;;49.70;46.28;;;;;;;;;;5083484;28;20059;-73
2023/12/14 10:49:21;;;;;;;51.25;47.60;;;;;;;;;;5082714;28;20056;-74
2023/12/14 10:51:59;;;;;;;24.40;21.80;;;;;;;;;;5082818;28;20044;-75
2023/12/14 10:54:31;;;;;;;24.45;22.60;;;;;;;;;;5083890;28;20039;-76
2023/12/14 10:57:03;;;;;;;24.98;13.23;;;;;;;;;;5083602;28;20522;-76
2023/12/14 10:59:34;;;;;;;29.80;26.75;;;;;;;;;;5083879;28;20600;-75
2023/12/14 11:02:13;;;;;;;22.70;20.48;;;;;;;;;;5084068;28;20721;-79
2023/12/14 11:04:58;;;;;;;20.98;18.77;;;;;;;;;;5083955;28;20071;-74
2023/12/14 11:07:53;;;;;;;23.73;21.75;;;;;;;;;;5083458;28;20044;-74
2023/12/14 11:10:39;;;;;;;21.10;17.73;;;;;;;;;;5083949;28;20086;-75
2023/12/14 11:13:13;;;;;;;21.05;17.38;;;;;;;;;;5083948;28;20044;-77
2023/12/14 11:15:51;;;;;;;23.73;15.55;;;;;;;;;;5084717;28;20055;-74
2023/12/14 11:18:24;;;;;;;20.33;18.17;;;;;;;;;;5083533;28;20048;-74
2023/12/14 11:21:00;;;;;;;14.70;13.48;;;;;;;;;;5084056;28;20059;-75
2023/12/14 11:23:33;;;;;;;18.60;16.20;;;;;;;;;;5083008;28;20047;-74
2023/12/14 11:26:06;;;;;;;17.73;16.02;;;;;;;;;;5083236;28;20055;-75
2023/12/14 11:28:42;;;;;;;21.77;19.90;;;;;;;;;;5083599;28;20043;-74
2023/12/14 11:31:13;;;;;;;13.88;10.10;;;;;;;;;;5083187;28;20039;-73
2023/12/14 11:33:45;;;;;;;28.95;26.23;;;;;;;;;;5083456;28;20063;-73
2023/12/14 11:36:15;;;;;;;22.88;12.85;;;;;;;;;;5083048;28;20070;-77
2023/12/14 11:38:48;;;;;;;26.67;18.48;;;;;;;;;;5082106;28;20126;-76
2023/12/14 11:41:25;;;;;;;21.23;15.55;;;;;;;;;;5083099;28;20044;-74
2023/12/14 11:43:55;;;;;;;;;;;;;;;;;;5083780;28;20067;-76
2023/12/14 11:46:25;;;;;;;27.80;18.10;;;;;;;;;;5081502;28;19934;-75
2023/12/14 11:48:57;;;;;;;41.00;22.60;;;;;;;;;;5082991;28;20478;-75
2023/12/14 11:51:30;;;;;;;79.78;32.90;;;;;;;;;;5083442;28;20099;-74
2023/12/14 11:54:04;;;;;;;44.10;24.45;;;;;;;;;;5082921;28;20530;-75
2023/12/14 11:56:36;;;;;;;51.15;21.55;;;;;;;;;;5081438;28;20040;-74
2023/12/14 11:59:11;;;;;;;36.03;20.35;;;;;;;;;;5084154;28;20043;-75
2023/12/14 12:01:55;;;;;;;21.08;11.35;;;;;;;;;;5080898;28;20060;-73
2023/12/14 12:04:28;;;;;;;24.13;12.60;;;;;;;;;;5082419;28;20056;-73
2023/12/14 12:07:03;;;;;;;23.63;11.95;;;;;;;;;;5081014;28;20782;-76
2023/12/14 12:09:44;;;;;;;19.90;10.45;;;;;;;;;;5083042;28;20051;-75
2023/12/14 12:12:15;;;;;;;21.15;15.10;;;;;;;;;;5082560;28;20748;-75
2023/12/14 12:14:46;;;;;;;26.08;13.27;;;;;;;;;;5082909;28;20052;-76
2023/12/14 12:17:16;;;;;;;16.80;9.23;;;;;;;;;;5082441;28;20063;-73
2023/12/14 12:19:46;;;;;;;10.30;8.57;;;;;;;;;;5083137;28;20051;-74
2023/12/14 12:22:18;;;;;;;27.88;14.15;;;;;;;;;;5081461;28;20055;-75
2023/12/14 12:24:48;;;;;;;24.58;14.80;;;;;;;;;;5082631;28;20052;-75
2023/12/14 12:27:35;;;;;;;9.60;8.70;;;;;;;;;;5082087;28;20040;-75
2023/12/14 12:30:06;;;;;;;7.28;6.57;;;;;;;;;;5081828;28;20059;-74
2023/12/14 12:32:35;;;;;;;9.95;9.13;;;;;;;;;;5082183;28;20130;-74
2023/12/14 12:35:07;;;;;;;15.20;13.90;;;;;;;;;;5081867;28;20048;-75
2023/12/14 12:37:37;;;;;;;9.90;7.75;;;;;;;;;;5081901;28;20047;-74
2023/12/14 12:40:08;;;;;;;9.52;7.38;;;;;;;;;;5081314;28;20059;-75
2023/12/14 12:42:38;;;;;;;10.90;8.38;;;;;;;;;;5082156;28;20058;-76
2023/12/14 12:45:08;;;;;;;16.50;7.28;;;;;;;;;;5081090;28;20052;-74
2023/12/14 12:47:39;;;;;;;8.80;5.65;;;;;;;;;;5082245;28;20415;-84
2023/12/14 12:50:10;;;;;;;13.73;7.85;;;;;;;;;;5082266;28;20051;-76
2023/12/14 12:52:42;;;;;;;18.63;14.88;;;;;;;;;;5082241;28;20577;-74
2023/12/14 12:55:12;;;;;;;7.30;6.63;;;;;;;;;;5082675;28;20438;-75
2023/12/14 12:57:43;;;;;;;9.73;6.70;;;;;;;;;;5082090;28;20078;-74
2023/12/14 13:00:15;;;;;;;14.32;11.05;;;;;;;;;;5081885;28;20058;-74
2023/12/14 13:02:47;;;;;;;9.27;7.28;;;;;;;;;;5082125;28;20060;-74
2023/12/14 13:05:24;;;;;;;11.02;9.13;;;;;;;;;;5082151;28;20048;-75
2023/12/14 13:07:57;;;;;;;12.07;8.68;;;;;;;;;;5081994;28;20498;-75
2023/12/14 13:10:28;;;;;;;11.65;7.32;;;;;;;;;;5082361;28;20046;-79
2023/12/14 13:13:00;;;;;;;16.02;13.10;;;;;;;;;;5081915;28;20482;-77
2023/12/14 13:15:30;;;;;;;19.60;13.88;;;;;;;;;;5081208;28;20148;-79
2023/12/14 13:18:01;;;;;;;8.88;7.13;;;;;;;;;;5082234;28;20051;-73
2023/12/14 13:20:31;;;;;;;7.93;6.95;;;;;;;;;;5081660;28;20070;-77
2023/12/14 13:23:02;;;;;;;17.23;15.50;;;;;;;;;;5082720;28;21179;-75
2023/12/14 13:25:32;;;;;;;12.10;11.18;;;;;;;;;;5082352;28;20047;-74
2023/12/14 13:28:04;;;;;;;8.50;7.70;;;;;;;;;;5081170;28;20537;-74
2023/12/14 13:30:34;;;;;;;7.78;6.97;;;;;;;;;;5081561;28;20529;-74
2023/12/14 13:33:06;;;;;;;14.77;10.75;;;;;;;;;;5081004;28;20054;-75
2023/12/14 13:35:37;;;;;;;9.95;8.50;;;;;;;;;;5081841;28;20071;-77
2023/12/14 13:38:06;;;;;;;10.10;7.50;;;;;;;;;;5081427;28;20052;-75
2023/12/14 13:40:38;;;;;;;12.43;9.60;;;;;;;;;;5082527;28;20055;-75
2023/12/14 13:43:10;;;;;;;9.63;6.95;;;;;;;;;;5081193;28;20047;-76
2023/12/14 13:45:41;;;;;;;7.78;6.78;;;;;;;;;;5081690;28;20052;-74
2023/12/14 13:48:12;;;;;;;12.48;8.93;;;;;;;;;;5081888;28;20047;-78
2023/12/14 13:50:44;;;;;;;16.40;6.82;;;;;;;;;;5081144;28;20055;-76
2023/12/14 13:53:14;;;;;;;11.52;6.53;;;;;;;;;;5081894;28;20055;-77
2023/12/14 13:55:50;;;;;;;6.80;6.15;;;;;;;;;;5081097;28;20044;-75
2023/12/14 13:58:21;;;;;;;10.23;7.28;;;;;;;;;;5079732;28;20515;-74
2023/12/14 14:00:51;;;;;;;11.45;8.00;;;;;;;;;;5081790;28;20048;-76
2023/12/14 14:03:22;;;;;;;9.02;8.10;;;;;;;;;;5081160;28;20517;-74
2023/12/14 14:05:52;;;;;;;27.42;25.38;;;;;;;;;;5082152;28;20051;-74
2023/12/14 14:08:22;;;;;;;7.18;6.57;;;;;;;;;;5079887;28;20060;-74
2023/12/14 14:10:53;;;;;;;9.95;6.22;;;;;;;;;;5081810;28;20040;-76
2023/12/14 14:13:24;;;;;;;15.57;6.13;;;;;;;;;;5081760;28;20071;-74
2023/12/14 14:15:54;;;;;;;10.65;9.63;;;;;;;;;;5081637;28;20066;-74
2023/12/14 14:18:24;;;;;;;6.38;5.70;;;;;;;;;;5081123;28;20521;-74
2023/12/14 14:20:54;;;;;;;8.90;8.00;;;;;;;;;;5080368;28;20545;-74
2023/12/14 14:23:25;;;;;;;8.20;7.43;;;;;;;;;;5081197;28;20059;-76
2023/12/14 14:25:55;;;;;;;7.50;6.93;;;;;;;;;;5081632;28;20056;-75
2023/12/14 14:28:26;;;;;;;7.70;5.85;;;;;;;;;;5085041;28;20040;-81
2023/12/14 14:30:56;;;;;;;7.47;6.70;;;;;;;;;;5084451;28;20051;-74
2023/12/14 14:33:26;;;;;;;19.33;13.07;;;;;;;;;;5083277;28;20063;-75
2023/12/14 14:35:56;;;;;;;11.73;10.77;;;;;;;;;;5083080;28;20433;-74
2023/12/14 14:38:27;;;;;;;8.07;7.28;;;;;;;;;;5084766;28;20052;-75
2023/12/14 14:40:58;;;;;;;9.85;5.85;;;;;;;;;;5084818;28;20048;-78
2023/12/14 14:43:28;;;;;;;14.13;12.95;;;;;;;;;;5084639;28;20067;-75
2023/12/14 14:45:58;;;;;;;8.15;6.18;;;;;;;;;;5084639;28;20411;-74